createdAt,value
2022-10-15T00:01:27.406Z,63.12
2022-10-15T00:03:55.611Z,63.36
2022-10-15T00:06:22.234Z,63.50
2022-10-15T00:08:49.007Z,63.06
2022-10-15T00:11:21.675Z,63.44
2022-10-15T00:13:55.022Z,63.13
2022-10-15T00:16:23.901Z,63.09
2022-10-15T00:18:52.214Z,63.14
2022-10-15T00:21:20.465Z,62.99
2022-10-15T00:23:56.277Z,63.42
2022-10-15T00:26:26.082Z,63.05
2022-10-15T00:28:55.294Z,63.27
2022-10-15T00:31:24.522Z,62.90
2022-10-15T00:33:54.181Z,62.83
2022-10-15T00:36:25.623Z,62.90
2022-10-15T00:38:52.602Z,63.22
2022-10-15T00:41:35.332Z,63.38
2022-10-15T00:44:26.537Z,63.22
2022-10-15T00:47:06.793Z,62.88
2022-10-15T00:49:36.199Z,63.00
2022-10-15T00:52:12.295Z,63.22
2022-10-15T00:54:48.098Z,63.05
2022-10-15T00:57:14.753Z,62.94
2022-10-15T00:59:49.879Z,63.09
2022-10-15T01:02:19.193Z,63.17
2022-10-15T01:04:48.077Z,63.03
2022-10-15T01:07:14.585Z,62.90
2022-10-15T01:09:44.469Z,62.85
2022-10-15T01:12:20.255Z,63.36
2022-10-15T01:15:04.555Z,63.32
2022-10-15T01:17:55.641Z,63.29
2022-10-15T01:20:52.229Z,63.61
2022-10-15T01:24:01.276Z,63.19
2022-10-15T01:26:52.596Z,63.68
2022-10-15T01:29:34.504Z,63.47
2022-10-15T01:32:07.731Z,63.70
2022-10-15T01:34:54.977Z,63.67
2022-10-15T01:37:40.928Z,63.90
2022-10-15T01:40:36.245Z,63.98
2022-10-15T01:43:06.852Z,63.83
2022-10-15T01:46:09.247Z,63.85
2022-10-15T01:48:43.105Z,63.98
2022-10-15T01:51:12.300Z,63.91
2022-10-15T01:53:40.230Z,64.33
2022-10-15T01:56:12.464Z,64.09
2022-10-15T01:58:43.329Z,64.12
2022-10-15T02:01:10.501Z,64.11
2022-10-15T02:04:02.338Z,64.31
2022-10-15T02:06:41.799Z,64.52
2022-10-15T02:09:32.119Z,64.11
2022-10-15T02:12:17.838Z,64.42
2022-10-15T02:14:58.976Z,64.26
2022-10-15T02:17:41.503Z,64.68
2022-10-15T02:20:20.670Z,64.33
2022-10-15T02:22:57.033Z,64.36
2022-10-15T02:25:26.028Z,64.83
2022-10-15T02:27:56.874Z,64.55
2022-10-15T02:30:24.688Z,64.77
2022-10-15T02:32:54.911Z,64.92
2022-10-15T02:35:24.454Z,64.97
2022-10-15T02:37:54.131Z,64.67
2022-10-15T02:40:24.935Z,64.73
2022-10-15T02:42:52.119Z,64.99
2022-10-15T02:45:21.138Z,65.12
2022-10-15T02:47:47.600Z,64.80
2022-10-15T02:50:14.512Z,64.77
2022-10-15T02:52:41.189Z,64.80
2022-10-15T02:55:08.150Z,64.94
2022-10-15T02:57:35.199Z,65.11
2022-10-15T03:00:02.611Z,65.08
2022-10-15T03:02:29.180Z,65.05
2022-10-15T03:04:56.372Z,64.82
2022-10-15T03:07:23.874Z,65.07
2022-10-15T03:09:50.915Z,65.00
2022-10-15T03:12:17.618Z,64.88
2022-10-15T03:14:49.729Z,65.10
2022-10-15T03:17:16.439Z,64.67
2022-10-15T03:19:43.153Z,64.72
2022-10-15T03:22:10.635Z,64.68
2022-10-15T03:24:52.010Z,64.61
2022-10-15T03:27:23.785Z,64.79
2022-10-15T03:29:50.476Z,64.55
2022-10-15T03:32:17.153Z,64.57
2022-10-15T03:34:48.129Z,64.98
2022-10-15T03:37:17.207Z,64.78
2022-10-15T03:39:43.791Z,64.42
2022-10-15T03:42:11.187Z,64.59
2022-10-15T03:44:44.486Z,64.86
2022-10-15T03:47:15.187Z,64.64
2022-10-15T03:49:45.260Z,64.93
2022-10-15T03:52:12.011Z,64.73
2022-10-15T03:54:40.329Z,65.05
2022-10-15T03:57:07.987Z,64.75
2022-10-15T03:59:39.433Z,65.29
2022-10-15T04:02:06.456Z,64.84
2022-10-15T04:04:34.436Z,65.03
2022-10-15T04:07:00.946Z,64.94
2022-10-15T04:09:29.450Z,65.12
2022-10-15T04:12:16.685Z,65.03
2022-10-15T04:14:47.422Z,65.35
2022-10-15T04:17:14.129Z,65.01
2022-10-15T04:19:44.258Z,65.43
2022-10-15T04:22:10.929Z,65.47
2022-10-15T04:24:54.960Z,65.53
2022-10-15T04:27:28.765Z,65.28
2022-10-15T04:30:05.715Z,65.35
2022-10-15T04:32:32.841Z,65.46
2022-10-15T04:35:02.804Z,65.61
2022-10-15T04:37:47.981Z,65.22
2022-10-15T04:40:15.341Z,65.76
2022-10-15T04:42:42.228Z,65.48
2022-10-15T04:45:10.285Z,65.39
2022-10-15T04:47:37.884Z,65.75
2022-10-15T04:50:09.881Z,65.80
2022-10-15T04:52:54.724Z,65.51
2022-10-15T04:55:23.775Z,65.62
2022-10-15T04:57:56.092Z,65.73
2022-10-15T05:00:28.057Z,65.67
2022-10-15T05:03:16.197Z,65.57
2022-10-15T05:05:50.189Z,65.71
2022-10-15T05:08:16.721Z,65.87
2022-10-15T05:11:04.609Z,65.85
2022-10-15T05:13:32.620Z,65.76
2022-10-15T05:16:17.397Z,65.76
2022-10-15T05:18:47.118Z,65.70
2022-10-15T05:21:15.003Z,65.82
2022-10-15T05:23:45.010Z,65.61
2022-10-15T05:26:32.582Z,66.10
2022-10-15T05:29:00.525Z,66.01
2022-10-15T05:31:32.166Z,65.95
2022-10-15T05:34:16.636Z,65.86
2022-10-15T05:36:49.982Z,66.15
2022-10-15T05:39:16.633Z,66.31
2022-10-15T05:41:45.111Z,66.30
2022-10-15T05:44:16.031Z,66.26
2022-10-15T05:46:42.621Z,66.34
2022-10-15T05:49:13.755Z,65.88
2022-10-15T05:51:47.516Z,66.04
2022-10-15T05:54:24.443Z,66.03
2022-10-15T05:56:50.953Z,66.15
2022-10-15T05:59:17.450Z,66.04
2022-10-15T06:01:43.983Z,66.40
2022-10-15T06:04:12.294Z,66.31
2022-10-15T06:06:41.894Z,66.35
2022-10-15T06:09:08.377Z,66.33
2022-10-15T06:11:36.780Z,66.06
2022-10-15T06:14:05.222Z,66.08
2022-10-15T06:16:31.777Z,66.06
2022-10-15T06:18:58.298Z,66.38
2022-10-15T06:21:25.159Z,66.37
2022-10-15T06:23:55.656Z,66.01
2022-10-15T06:26:22.131Z,65.85
2022-10-15T06:28:49.262Z,66.10
2022-10-15T06:31:15.828Z,65.81
2022-10-15T06:33:42.300Z,66.06
2022-10-15T06:36:13.887Z,66.10
2022-10-15T06:38:40.470Z,65.82
2022-10-15T06:41:07.666Z,66.09
2022-10-15T06:43:35.516Z,65.87
2022-10-15T06:46:05.577Z,65.97
2022-10-15T06:48:32.953Z,65.82
2022-10-15T06:51:00.902Z,66.00
2022-10-15T06:53:28.686Z,66.17
2022-10-15T06:56:01.173Z,66.23
2022-10-15T06:58:28.600Z,65.96
2022-10-15T07:01:06.462Z,66.17
2022-10-15T07:03:33.318Z,66.07
2022-10-15T07:06:05.015Z,66.01
2022-10-15T07:08:32.313Z,65.82
2022-10-15T07:11:00.922Z,66.12
2022-10-15T07:13:29.974Z,65.83
2022-10-15T07:16:04.257Z,66.20
2022-10-15T07:18:30.913Z,65.89
2022-10-15T07:20:57.507Z,66.28
2022-10-15T07:23:27.078Z,66.31
2022-10-15T07:25:56.885Z,66.14
2022-10-15T07:28:23.534Z,65.96
2022-10-15T07:30:50.194Z,65.99
2022-10-15T07:33:16.747Z,66.07
2022-10-15T07:35:53.389Z,66.07
2022-10-15T07:38:20.111Z,66.23
2022-10-15T07:40:46.590Z,66.01
2022-10-15T07:43:13.157Z,66.14
2022-10-15T07:45:47.770Z,65.95
2022-10-15T07:48:14.244Z,66.06
2022-10-15T07:50:42.344Z,65.95
2022-10-15T07:53:09.780Z,65.94
2022-10-15T07:55:37.861Z,65.97
2022-10-15T07:58:05.822Z,65.93
2022-10-15T08:03:04.625Z,66.24
2022-10-15T08:05:31.275Z,66.19
2022-10-15T08:07:57.797Z,66.12
2022-10-15T08:10:24.308Z,65.98
2022-10-15T08:12:50.801Z,65.88
2022-10-15T08:15:18.256Z,65.89
2022-10-15T08:17:44.902Z,65.85
2022-10-15T08:20:14.993Z,65.89
2022-10-15T08:22:41.531Z,66.15
2022-10-15T08:25:11.374Z,65.81
2022-10-15T08:27:37.843Z,65.69
2022-10-15T08:30:05.658Z,65.82
2022-10-15T08:32:36.207Z,65.71
2022-10-15T08:35:07.602Z,65.31
2022-10-15T08:37:34.139Z,65.18
2022-10-15T08:40:00.581Z,65.02
2022-10-15T08:42:38.041Z,64.73
2022-10-15T08:45:16.709Z,64.60
2022-10-15T08:47:51.179Z,64.33
2022-10-15T08:50:20.694Z,64.59
2022-10-15T08:52:50.662Z,64.29
2022-10-15T08:55:21.068Z,64.49
2022-10-15T08:58:22.045Z,64.34
2022-10-15T09:01:01.369Z,64.37
2022-10-15T09:03:33.551Z,64.04
2022-10-15T09:06:19.314Z,63.90
2022-10-15T09:09:19.512Z,64.06
2022-10-15T09:12:02.675Z,63.98
2022-10-15T09:14:35.698Z,63.66
2022-10-15T09:17:14.356Z,63.48
2022-10-15T09:19:44.512Z,63.58
2022-10-15T09:22:17.563Z,63.45
2022-10-15T09:24:48.147Z,63.13
2022-10-15T09:27:14.612Z,63.09
2022-10-15T09:29:59.849Z,63.32
2022-10-15T09:32:51.925Z,63.10
2022-10-15T09:35:29.274Z,63.33
2022-10-15T09:38:33.440Z,63.03
2022-10-15T09:41:18.180Z,63.00
2022-10-15T09:43:48.500Z,63.17
2022-10-15T09:46:19.290Z,63.06
2022-10-15T09:49:02.255Z,63.30
2022-10-15T09:51:51.049Z,63.42
2022-10-15T09:54:28.764Z,63.03
2022-10-15T09:56:57.305Z,63.24
2022-10-15T09:59:25.198Z,63.26
2022-10-15T10:02:13.191Z,63.30
2022-10-15T10:04:44.567Z,63.31
2022-10-15T10:07:27.329Z,63.13
2022-10-15T10:09:56.190Z,63.21
2022-10-15T10:12:30.975Z,63.36
2022-10-15T10:15:21.650Z,63.47
2022-10-15T10:17:55.225Z,63.42
2022-10-15T10:20:24.325Z,63.63
2022-10-15T10:22:52.497Z,63.49
2022-10-15T10:25:37.505Z,63.75
2022-10-15T10:28:14.475Z,63.91
2022-10-15T10:30:50.078Z,63.88
2022-10-15T10:33:28.272Z,63.97
2022-10-15T10:35:56.461Z,64.08
2022-10-15T10:38:26.626Z,64.09
2022-10-15T10:40:59.079Z,64.31
2022-10-15T10:43:29.908Z,64.16
2022-10-15T10:46:18.040Z,64.49
2022-10-15T10:48:53.049Z,64.43
2022-10-15T10:51:25.588Z,64.66
2022-10-15T10:53:56.707Z,64.62
2022-10-15T10:56:30.023Z,64.50
2022-10-15T10:59:01.903Z,64.69
2022-10-15T11:01:29.409Z,65.01
2022-10-15T11:03:59.796Z,65.10
2022-10-15T11:06:41.500Z,64.79
2022-10-15T11:09:46.623Z,65.03
2022-10-15T11:12:51.469Z,64.86
2022-10-15T11:15:48.154Z,64.97
2022-10-15T11:18:27.013Z,64.83
2022-10-15T11:21:08.523Z,64.88
2022-10-15T11:24:02.463Z,64.94
2022-10-15T11:27:09.582Z,65.21
2022-10-15T11:30:11.038Z,65.15
2022-10-15T11:33:06.127Z,64.76
2022-10-15T11:35:53.337Z,65.00
2022-10-15T11:38:35.511Z,64.93
2022-10-15T11:41:10.551Z,65.21
2022-10-15T11:47:00.931Z,65.24
2022-10-15T11:50:05.680Z,65.41
2022-10-15T11:52:45.694Z,65.06
2022-10-15T11:55:45.690Z,65.53
2022-10-15T11:58:20.439Z,65.54
2022-10-15T12:00:51.866Z,65.51
2022-10-15T12:03:24.208Z,65.53
2022-10-15T12:05:59.849Z,65.51
2022-10-15T12:08:39.280Z,65.33
2022-10-15T12:11:21.115Z,65.37
2022-10-15T12:14:13.641Z,65.30
2022-10-15T12:17:12.482Z,65.55
2022-10-15T12:19:48.617Z,65.60
2022-10-15T12:22:34.474Z,65.60
2022-10-15T12:25:02.062Z,65.54
2022-10-15T12:27:35.897Z,65.67
2022-10-15T12:30:02.515Z,65.46
2022-10-15T12:32:50.852Z,66.07
2022-10-15T12:35:19.025Z,66.16
2022-10-15T12:37:49.817Z,66.22
2022-10-15T12:40:22.513Z,66.20
2022-10-15T12:43:17.409Z,66.34
2022-10-15T12:45:57.002Z,66.19
2022-10-15T12:48:37.179Z,66.11
2022-10-15T12:51:22.132Z,66.07
2022-10-15T12:53:58.485Z,66.08
2022-10-15T12:56:36.138Z,66.40
2022-10-15T12:59:02.674Z,65.97
2022-10-15T13:01:42.254Z,66.08
2022-10-15T13:04:13.118Z,65.84
2022-10-15T13:06:40.219Z,66.14
2022-10-15T13:09:24.373Z,65.95
2022-10-15T13:11:52.943Z,65.96
2022-10-15T13:14:39.444Z,65.72
2022-10-15T13:17:15.348Z,65.18
2022-10-15T13:19:48.404Z,65.52
2022-10-15T13:22:27.279Z,65.51
2022-10-15T13:24:57.406Z,65.24
2022-10-15T13:27:32.140Z,65.32
2022-10-15T13:30:00.260Z,65.31
2022-10-15T13:32:31.041Z,65.03
2022-10-15T13:35:00.616Z,65.09
2022-10-15T13:37:32.538Z,64.83
2022-10-15T13:40:01.814Z,64.91
2022-10-15T13:42:33.191Z,64.50
2022-10-15T13:45:15.385Z,64.53
2022-10-15T13:47:46.968Z,64.44
2022-10-15T13:50:35.082Z,64.24
2022-10-15T13:53:12.153Z,64.10
2022-10-15T13:55:43.961Z,64.04
2022-10-15T13:58:16.241Z,64.04
2022-10-15T14:00:43.105Z,63.82
2022-10-15T14:03:16.000Z,63.85
2022-10-15T14:05:44.767Z,63.75
2022-10-15T14:08:19.001Z,63.63
2022-10-15T14:10:46.251Z,63.55
2022-10-15T14:13:13.215Z,63.35
2022-10-15T14:15:45.377Z,63.28
2022-10-15T14:18:15.310Z,62.77
2022-10-15T14:20:46.937Z,62.20
2022-10-15T14:23:22.343Z,62.08
2022-10-15T14:26:04.086Z,61.65
2022-10-15T14:28:33.969Z,61.21
2022-10-15T14:31:02.565Z,60.70
2022-10-15T14:33:32.839Z,60.80
2022-10-15T14:36:04.546Z,60.46
2022-10-15T14:38:31.782Z,60.11
2022-10-15T14:41:07.704Z,59.77
2022-10-15T14:43:37.599Z,59.85
2022-10-15T14:46:11.659Z,59.38
2022-10-15T14:48:40.604Z,59.19
2022-10-15T14:51:14.829Z,58.84
2022-10-15T14:53:46.881Z,58.81
2022-10-15T14:56:28.301Z,58.34
2022-10-15T14:58:57.384Z,58.34
2022-10-15T15:01:24.785Z,58.18
2022-10-15T15:04:32.431Z,57.76
2022-10-15T15:06:59.001Z,57.59
2022-10-15T15:09:25.556Z,57.57
2022-10-15T15:11:52.081Z,57.41
2022-10-15T15:14:25.158Z,56.97
2022-10-15T15:16:52.074Z,57.05
2022-10-15T15:19:18.550Z,57.44
2022-10-15T15:21:45.479Z,57.38
2022-10-15T15:24:13.057Z,57.05
2022-10-15T15:26:39.564Z,56.97
2022-10-15T15:29:13.913Z,57.37
2022-10-15T15:31:40.683Z,57.25
2022-10-15T15:34:09.267Z,57.18
2022-10-15T15:36:35.813Z,57.10
2022-10-15T15:39:02.291Z,57.10
2022-10-15T15:41:28.910Z,57.20
2022-10-15T15:43:56.929Z,57.46
2022-10-15T15:46:23.452Z,57.03
2022-10-15T15:48:49.964Z,57.22
2022-10-15T15:51:22.152Z,57.41
2022-10-15T15:53:56.333Z,57.13
2022-10-15T15:56:22.903Z,57.23
2022-10-15T15:58:50.473Z,57.22
2022-10-15T16:01:18.653Z,57.24
2022-10-15T16:03:45.517Z,57.10
2022-10-15T16:06:13.249Z,57.26
2022-10-15T16:08:39.738Z,56.65
2022-10-15T16:11:06.947Z,57.22
2022-10-15T16:13:34.023Z,57.12
2022-10-15T16:16:00.488Z,56.96
2022-10-15T16:18:27.016Z,57.47
2022-10-15T16:20:53.649Z,57.26
2022-10-15T16:23:20.170Z,57.20
2022-10-15T16:25:46.707Z,57.34
2022-10-15T16:28:13.240Z,57.36
2022-10-15T16:30:39.701Z,57.29
2022-10-15T16:35:38.381Z,57.60
2022-10-15T16:38:04.835Z,57.35
2022-10-15T16:40:31.425Z,57.68
2022-10-15T16:42:58.107Z,57.51
2022-10-15T16:45:24.845Z,57.79
2022-10-15T16:47:54.447Z,57.47
2022-10-15T16:50:20.983Z,57.40
2022-10-15T16:52:47.456Z,57.60
2022-10-15T16:55:16.603Z,57.56
2022-10-15T16:57:43.888Z,57.33
2022-10-15T17:00:11.019Z,57.63
2022-10-15T17:02:37.954Z,57.60
2022-10-15T17:05:04.823Z,57.42
2022-10-15T17:07:31.288Z,57.82
2022-10-15T17:09:57.739Z,57.71
2022-10-15T17:12:24.437Z,57.43
2022-10-15T17:14:51.705Z,57.86
2022-10-15T17:17:18.433Z,57.71
2022-10-15T17:19:44.927Z,57.73
2022-10-15T17:22:11.419Z,57.63
2022-10-15T17:24:42.418Z,57.76
2022-10-15T17:27:08.937Z,57.77
2022-10-15T17:29:35.421Z,57.80
2022-10-15T17:32:03.460Z,57.53
2022-10-15T17:34:31.842Z,57.65
2022-10-15T17:36:58.344Z,57.65
2022-10-15T17:39:27.056Z,57.96
2022-10-15T17:41:53.674Z,57.88
2022-10-15T17:44:21.779Z,57.69
2022-10-15T17:49:18.586Z,57.94
2022-10-15T17:51:45.877Z,57.90
2022-10-15T17:54:13.784Z,57.95
2022-10-15T17:56:40.700Z,58.12
2022-10-15T17:59:10.540Z,58.41
2022-10-15T18:01:57.258Z,58.40
2022-10-15T18:04:29.403Z,58.17
2022-10-15T18:06:56.017Z,58.22
2022-10-15T18:09:26.847Z,58.62
2022-10-15T18:11:58.620Z,58.63
2022-10-15T18:14:34.855Z,58.51
2022-10-15T18:17:01.607Z,58.76
2022-10-15T18:19:28.862Z,58.42
2022-10-15T18:21:56.080Z,58.48
2022-10-15T18:24:25.457Z,58.41
2022-10-15T18:26:52.779Z,58.58
2022-10-15T18:29:19.862Z,58.46
2022-10-15T18:31:53.387Z,58.42
2022-10-15T18:34:26.995Z,58.72
2022-10-15T18:36:53.512Z,58.51
2022-10-15T18:39:23.047Z,58.71
2022-10-15T18:41:49.503Z,58.63
2022-10-15T18:44:20.741Z,58.98
2022-10-15T18:46:47.501Z,58.82
2022-10-15T18:49:16.745Z,58.98
2022-10-15T18:51:45.995Z,58.93
2022-10-15T18:54:16.652Z,59.22
2022-10-15T18:56:43.408Z,58.87
2022-10-15T18:59:09.965Z,59.04
2022-10-15T19:01:41.954Z,59.08
2022-10-15T19:04:15.369Z,59.10
2022-10-15T19:06:45.151Z,59.63
2022-10-15T19:09:14.889Z,59.63
2022-10-15T19:11:43.754Z,59.69
2022-10-15T19:14:12.914Z,59.58
2022-10-15T19:16:39.465Z,59.34
2022-10-15T19:19:12.517Z,59.88
2022-10-15T19:21:39.229Z,59.72
2022-10-15T19:24:07.727Z,59.80
2022-10-15T19:26:34.671Z,59.67
2022-10-15T19:29:01.708Z,59.66
2022-10-15T19:31:30.957Z,59.68
2022-10-15T19:34:01.990Z,60.06
2022-10-15T19:37:00.352Z,60.18
2022-10-15T19:39:28.585Z,59.80
2022-10-15T19:41:55.237Z,60.11
2022-10-15T19:44:26.054Z,59.91
2022-10-15T19:46:53.492Z,59.69
2022-10-15T19:49:20.296Z,60.00
2022-10-15T19:51:48.377Z,60.42
2022-10-15T19:54:19.306Z,60.30
2022-10-15T19:56:45.810Z,60.57
2022-10-15T19:59:13.049Z,60.38
2022-10-15T20:01:39.598Z,60.41
2022-10-15T20:04:07.273Z,60.28
2022-10-15T20:06:35.836Z,60.53
2022-10-15T20:09:02.904Z,60.31
2022-10-15T20:11:29.701Z,60.45
2022-10-15T20:14:01.285Z,60.27
2022-10-15T20:16:32.450Z,60.05
2022-10-15T20:19:01.618Z,60.53
2022-10-15T20:21:28.159Z,60.19
2022-10-15T20:23:58.206Z,60.44
2022-10-15T20:26:24.729Z,60.07
2022-10-15T20:28:51.370Z,60.33
2022-10-15T20:31:28.015Z,60.05
2022-10-15T20:34:00.701Z,59.76
2022-10-15T20:36:27.429Z,60.14
2022-10-15T20:38:55.562Z,59.92
2022-10-15T20:41:22.018Z,59.73
2022-10-15T20:44:01.447Z,59.63
2022-10-15T20:46:33.068Z,59.65
2022-10-15T20:49:08.501Z,59.64
2022-10-15T20:51:45.560Z,59.46
2022-10-15T20:54:19.001Z,59.66
2022-10-15T20:56:45.961Z,59.52
2022-10-15T20:59:13.014Z,59.35
2022-10-15T21:01:40.450Z,59.36
2022-10-15T21:04:11.094Z,59.57
2022-10-15T21:06:37.558Z,59.26
2022-10-15T21:09:04.192Z,59.55
2022-10-15T21:11:31.082Z,59.65
2022-10-15T21:14:01.937Z,59.30
2022-10-15T21:16:28.772Z,59.34
2022-10-15T21:18:55.589Z,59.61
2022-10-15T21:21:22.105Z,59.50
2022-10-15T21:23:48.897Z,59.41
2022-10-15T21:26:19.504Z,59.34
2022-10-15T21:28:46.434Z,59.72
2022-10-15T21:31:16.099Z,59.46
2022-10-15T21:33:43.122Z,59.74
2022-10-15T21:36:24.916Z,59.68
2022-10-15T21:38:54.172Z,59.54
2022-10-15T21:41:25.114Z,59.66
2022-10-15T21:43:55.668Z,59.85
2022-10-15T21:46:22.612Z,59.63
2022-10-15T21:48:49.544Z,59.60
2022-10-15T21:51:19.289Z,59.50
2022-10-15T21:53:46.811Z,59.96
2022-10-15T21:56:14.832Z,59.78
2022-10-15T21:58:42.935Z,59.89
2022-10-15T22:01:32.810Z,60.00
2022-10-15T22:04:06.550Z,60.13
2022-10-15T22:06:33.714Z,59.86
2022-10-15T22:09:01.161Z,59.97
2022-10-15T22:11:30.186Z,59.97
2022-10-15T22:14:13.429Z,59.79
2022-10-15T22:16:40.908Z,59.94
2022-10-15T22:19:11.145Z,60.06
2022-10-15T22:21:38.950Z,59.97
2022-10-15T22:24:17.222Z,59.83
2022-10-15T22:26:51.877Z,59.78
2022-10-15T22:29:24.083Z,59.74
2022-10-15T22:31:51.678Z,59.76
2022-10-15T22:34:23.476Z,59.67
2022-10-15T22:36:50.192Z,59.60
2022-10-15T22:39:18.545Z,59.75
2022-10-15T22:41:46.517Z,59.90
2022-10-15T22:44:20.321Z,59.92
2022-10-15T22:46:49.141Z,60.00
2022-10-15T22:49:18.447Z,59.76
2022-10-15T22:51:45.478Z,59.95
2022-10-15T22:54:14.118Z,59.84
2022-10-15T22:56:40.705Z,60.17
2022-10-15T22:59:07.449Z,60.26
2022-10-15T23:01:35.412Z,59.91
2022-10-15T23:04:07.644Z,60.10
2022-10-15T23:06:36.760Z,59.91
2022-10-15T23:09:05.408Z,60.05
2022-10-15T23:11:38.130Z,60.04
2022-10-15T23:14:11.177Z,60.35
2022-10-15T23:16:43.900Z,60.36
2022-10-15T23:19:18.636Z,60.63
2022-10-15T23:21:47.018Z,60.01
2022-10-15T23:24:38.293Z,60.64
2022-10-15T23:27:04.748Z,60.68
2022-10-15T23:29:31.214Z,60.39
2022-10-15T23:31:57.729Z,60.52
2022-10-15T23:34:28.715Z,60.78
2022-10-15T23:36:55.278Z,60.56
2022-10-15T23:39:25.008Z,60.83
2022-10-15T23:41:52.207Z,60.71
2022-10-15T23:44:19.207Z,60.74
2022-10-15T23:46:46.230Z,60.95
2022-10-15T23:49:13.563Z,60.83
2022-10-15T23:51:40.984Z,61.04
2022-10-15T23:54:18.317Z,61.20
2022-10-15T23:56:46.332Z,60.89
2022-10-15T23:59:12.902Z,60.75
